Montreal / St-Lazare Airport

CST3 · Quebec, 加拿大

罗盘
风向 的 Montreal / St-Lazare Airport 2/20
风: 0 kt, 0 beaufort


改变
0 1.000 2.000 3.000 4.000 5.000
没有云
METAR CYMX 090800Z 00000KT 25SM SKC M05/M06 A3041 RMK SLP303

METAR Montreal / St-Lazare Airport - CST3

Montreal / St-Lazare Airport是,加拿大中的小机场。 该机场有2条跑道: 2/20 和 8/26. 该领域的国际民航组织标志是CST3.

这份报告是针对2022年12月9日 03:00, 当地时间在Montreal International (Mirabel) Airport进行的。

机场观察

可变方向的风很小或没有风。

可见度为25 mi。

有没有云。 没有观察到天花板。

温度和风寒是-5 °C。 露点为-6 °C,相对湿度为93%。 海平面上的气压为30,41 inHg (QNH)。

白天

今天,太阳从07:24升起,在16:13降落。 这适用于Montreal / St-Lazare Airport,世界夏令时可能有所不同。 当地时间与世界标准时间之间的时差为-5 小时。 当前,没有夏令时有效。

公司介绍

我们没有关于这个机场的公司信息。

体会

到Vliegles.nl去找飞行课程,跳伞和其他飞行体验。 浏览页面,了解Montreal / St-Lazare Airport附近所有可用的活动。 你也可以使用搜索功能来寻找你所在地附近的特定飞行课程、跳伞或其他飞行体验。

跑道

Id 标题 侧风 逆风 侧风 %
2/20 020°-200°
8/26 080°-260°

逆风成分最大的方向会被突出显示,并用于横风计算。 这并不一定意味着这个方向在使用。

乌云

- SKC 没有云

温度 & 天气

温度 -5 °C
露点 -6 °C
相对湿度 93%
Kp-index 2 (0-9)

评论

SLP303海平面压力为30,42 inHg (30,42 inHg)

白天

日出
07:25 (3:18)
中午
11:48
日落
16:12

小工具

你想在你的网站上有一个关于Montreal / St-Lazare Airport的当前航空天气(METAR)的小部件吗?

显示HTML代码

我们和第三方通过cookies跟踪您在我们网站上的互联网行为。如果你继续,我们认为你同意我们的饼干政策